Time;durP1;ratioP1;P1;durP2;ratioP2;P2;SDS_P1;SDS_P2;PMS_P1;PMS_P2;Temp;Humidity;BMP_temperature;BMP_pressure;BME280_temperature;BME280_humidity;BME280_pressure;Samples;Min_cycle;Max_cycle;Signal;HPM_P1;HPM_P2
2022/08/12 00:42:50;;;;;;;0.73;0.63;;;19.00;99.90;;;;;;6060284;23;20388;-83
2022/08/12 00:45:17;;;;;;;0.75;0.60;;;18.90;99.90;;;;;;6059359;23;20038;-84
2022/08/12 00:47:48;;;;;;;0.65;0.65;;;18.90;99.90;;;;;;6059671;23;20395;-87
2022/08/12 00:50:18;;;;;;;0.63;0.47;;;18.80;99.90;;;;;;6059381;23;20031;-83
2022/08/12 00:52:47;;;;;;;0.93;0.50;;;18.70;99.90;;;;;;6060243;23;20030;-83
2022/08/12 00:55:15;;;;;;;1.00;0.68;;;18.60;99.90;;;;;;6059423;23;20026;-84
2022/08/12 00:57:47;;;;;;;0.77;0.60;;;18.60;99.90;;;;;;6041075;23;20026;-83
2022/08/12 01:00:20;;;;;;;0.90;0.75;;;18.60;99.90;;;;;;6057641;23;20086;-82
2022/08/12 01:02:52;;;;;;;0.50;0.50;;;18.60;99.90;;;;;;6058754;23;20027;-83
2022/08/12 01:13:46;;;;;;;0.82;0.80;;;18.50;99.90;;;;;;6057777;23;20303;-83
2022/08/12 01:16:15;;;;;;;0.52;0.52;;;18.50;99.90;;;;;;6057265;23;20030;-83
2022/08/12 01:18:42;;;;;;;0.73;0.65;;;18.40;99.90;;;;;;6033946;23;20037;-82
2022/08/12 01:21:15;;;;;;;0.70;0.60;;;18.40;99.90;;;;;;6057180;23;20021;-83
2022/08/12 01:24:34;;;;;;;0.85;0.60;;;18.40;99.90;;;;;;6036436;23;20102;-83
2022/08/12 01:27:03;;;;;;;1.13;0.70;;;18.30;99.90;;;;;;6013265;23;20022;-83
2022/08/12 01:29:35;;;;;;;1.10;0.70;;;18.30;99.90;;;;;;6078254;23;20061;-84
2022/08/12 01:40:17;;;;;;;0.88;0.63;;;18.00;99.90;;;;;;6226903;23;20031;-85
2022/08/12 01:43:08;;;;;;;0.65;0.60;;;18.00;99.90;;;;;;6152320;23;20024;-85
2022/08/12 01:45:39;;;;;;;;;;;18.10;99.90;;;;;;6163721;23;20028;-84
2022/08/12 01:48:18;;;;;;;0.60;0.52;;;18.00;99.90;;;;;;6161744;23;20406;-84
2022/08/12 01:50:55;;;;;;;0.63;0.60;;;18.10;99.90;;;;;;6161215;23;20028;-84
2022/08/12 01:53:49;;;;;;;0.88;0.73;;;18.00;99.90;;;;;;6186780;23;20028;-85
2022/08/12 01:56:18;;;;;;;1.20;0.88;;;17.90;99.90;;;;;;6162536;23;20629;-84
2022/08/12 02:01:38;;;;;;;0.93;0.60;;;17.80;99.90;;;;;;6170331;23;20017;-85
2022/08/12 02:13:54;;;;;;;;;;;17.60;99.90;;;;;;6191170;23;20459;-84
2022/08/12 02:16:49;;;;;;;1.15;0.70;;;17.70;99.90;;;;;;6164480;23;19919;-84
2022/08/12 02:19:33;;;;;;;0.65;0.63;;;17.60;99.90;;;;;;6160993;23;20033;-84
2022/08/12 02:22:18;;;;;;;0.60;0.60;;;17.60;99.90;;;;;;6189216;23;20020;-84
2022/08/12 02:24:46;;;;;;;0.85;0.60;;;17.60;99.90;;;;;;6206920;23;20021;-86
2022/08/12 02:27:13;;;;;;;0.47;0.47;;;17.60;99.90;;;;;;6184883;23;20419;-84
2022/08/12 02:29:40;;;;;;;0.98;0.60;;;17.60;99.90;;;;;;6184177;23;20035;-84
2022/08/12 02:32:07;;;;;;;1.10;0.90;;;17.60;99.90;;;;;;6158198;23;20025;-84
2022/08/12 02:34:35;;;;;;;0.75;0.68;;;17.60;99.90;;;;;;6159960;23;20028;-85
2022/08/12 02:37:02;;;;;;;1.15;0.93;;;17.50;99.90;;;;;;6184919;23;20004;-87
2022/08/12 02:39:33;;;;;;;1.13;0.88;;;17.50;99.90;;;;;;6235938;23;20032;-86
2022/08/12 02:42:03;;;;;;;0.70;0.70;;;17.50;99.90;;;;;;6212639;23;20078;-84
2022/08/12 02:44:35;;;;;;;0.85;0.73;;;17.60;99.90;;;;;;6213957;23;20020;-84
2022/08/12 02:47:10;;;;;;;0.95;0.80;;;17.60;99.90;;;;;;6217094;23;20028;-85
2022/08/12 02:49:57;;;;;;;0.85;0.70;;;17.50;99.90;;;;;;6183062;23;20034;-83
2022/08/12 02:52:25;;;;;;;1.08;0.90;;;17.50;99.90;;;;;;6166998;23;20074;-85
2022/08/12 02:54:55;;;;;;;0.60;0.60;;;17.50;99.90;;;;;;6162193;23;20020;-84
2022/08/12 02:57:24;;;;;;;0.90;0.80;;;17.40;99.90;;;;;;6163978;23;20028;-83
2022/08/12 02:59:51;;;;;;;0.75;0.75;;;17.30;99.90;;;;;;6184549;23;20021;-83
2022/08/12 03:02:20;;;;;;;0.80;0.60;;;17.30;99.90;;;;;;6137249;23;20079;-83
2022/08/12 03:04:52;;;;;;;0.75;0.75;;;17.30;99.90;;;;;;6137617;23;20079;-84
2022/08/12 03:07:23;;;;;;;0.90;0.70;;;17.30;99.90;;;;;;6138443;23;20347;-82
2022/08/12 03:10:11;;;;;;;0.63;0.63;;;17.30;99.90;;;;;;6212433;23;20481;-82
2022/08/12 03:12:44;;;;;;;;;;;17.20;99.90;;;;;;6141503;23;20051;-83
2022/08/12 03:15:21;;;;;;;0.70;0.70;;;17.20;99.90;;;;;;6163891;23;20099;-82
2022/08/12 03:17:54;;;;;;;0.97;0.73;;;17.30;99.90;;;;;;6186747;23;20346;-84
2022/08/12 03:20:41;;;;;;;0.60;0.60;;;17.30;99.90;;;;;;6190057;23;20024;-84
2022/08/12 03:23:13;;;;;;;0.88;0.80;;;17.30;99.90;;;;;;6186046;23;20335;-84
2022/08/12 03:25:57;;;;;;;0.50;0.50;;;17.30;99.90;;;;;;6189033;23;20024;-84
2022/08/12 03:31:10;;;;;;;1.10;0.80;;;17.30;99.90;;;;;;6210064;23;20017;-83
2022/08/12 03:33:39;;;;;;;1.45;0.90;;;17.20;99.90;;;;;;6183876;23;20025;-83
2022/08/12 03:36:07;;;;;;;0.60;0.60;;;17.10;99.90;;;;;;6160084;23;20020;-83
2022/08/12 03:38:36;;;;;;;0.70;0.63;;;17.00;99.90;;;;;;6135039;23;20028;-83
2022/08/12 03:41:53;;;;;;;0.85;0.70;;;16.90;99.90;;;;;;6134650;23;20056;-85
2022/08/12 04:00:48;;;;;;;0.75;0.73;;;16.90;99.90;;;;;;6164998;23;20082;-83
2022/08/12 04:06:00;;;;;;;1.20;0.90;;;16.80;99.90;;;;;;6188907;23;20024;-83
2022/08/12 04:08:27;;;;;;;0.73;0.60;;;16.80;99.90;;;;;;6184773;23;20025;-83
2022/08/12 04:13:39;;;;;;;0.90;0.80;;;16.80;99.90;;;;;;6189256;23;20032;-84
2022/08/12 04:16:09;;;;;;;1.00;0.82;;;16.80;99.90;;;;;;6135168;23;20017;-84
2022/08/12 04:18:39;;;;;;;0.88;0.80;;;16.80;99.90;;;;;;6142831;23;20040;-84
2022/08/12 04:21:09;;;;;;;0.90;0.80;;;16.80;99.90;;;;;;6137872;23;20023;-84
2022/08/12 04:23:43;;;;;;;0.80;0.70;;;16.80;99.90;;;;;;6161528;23;20051;-84
2022/08/12 04:26:14;;;;;;;0.60;0.50;;;16.70;99.90;;;;;;6138744;23;20100;-84
2022/08/12 04:28:43;;;;;;;0.73;0.63;;;16.60;99.90;;;;;;6160730;23;20035;-85
2022/08/12 04:31:11;;;;;;;0.80;0.73;;;16.60;99.90;;;;;;6136042;23;20020;-84
2022/08/12 04:33:44;;;;;;;0.65;0.63;;;16.60;99.90;;;;;;6163576;23;20047;-85
2022/08/12 04:36:11;;;;;;;0.82;0.77;;;16.60;99.90;;;;;;6160494;23;20392;-84
2022/08/12 04:38:38;;;;;;;0.85;0.60;;;16.60;99.90;;;;;;6135446;23;20239;-84
2022/08/12 04:41:06;;;;;;;1.02;0.85;;;16.60;99.90;;;;;;6160101;23;20017;-83
2022/08/12 04:43:37;;;;;;;0.70;0.70;;;16.60;99.90;;;;;;6160648;23;20028;-84
2022/08/12 04:46:24;;;;;;;0.82;0.82;;;16.60;99.90;;;;;;6145219;23;20095;-85
2022/08/12 04:49:01;;;;;;;0.50;0.50;;;16.50;99.90;;;;;;6137599;23;20019;-85
2022/08/12 04:51:31;;;;;;;1.38;0.70;;;16.60;99.90;;;;;;6159070;23;20028;-84
2022/08/12 04:54:01;;;;;;;1.52;0.90;;;16.60;99.90;;;;;;6157354;23;20618;-84
2022/08/12 04:56:31;;;;;;;0.65;0.65;;;16.60;99.90;;;;;;6182799;23;20025;-83
2022/08/12 04:59:01;;;;;;;0.80;0.80;;;16.60;99.90;;;;;;6161400;23;20024;-84
2022/08/12 05:01:31;;;;;;;0.77;0.77;;;16.60;99.90;;;;;;6158566;23;20020;-84
2022/08/12 05:04:02;;;;;;;0.68;0.60;;;16.60;99.90;;;;;;6159921;23;20017;-84
2022/08/12 05:06:29;;;;;;;0.80;0.68;;;16.60;99.90;;;;;;6187380;23;20021;-83
2022/08/12 05:08:59;;;;;;;1.25;0.77;;;16.60;99.90;;;;;;6187370;23;20020;-84
2022/08/12 05:11:27;;;;;;;0.90;0.80;;;16.60;99.90;;;;;;6164262;23;20020;-84
2022/08/12 05:13:59;;;;;;;0.68;0.68;;;16.60;99.90;;;;;;6170137;23;20031;-85
2022/08/12 05:16:27;;;;;;;0.60;0.60;;;16.60;99.90;;;;;;6175061;23;20492;-84
2022/08/12 05:19:00;;;;;;;0.75;0.75;;;16.60;99.90;;;;;;6203914;23;20025;-84
2022/08/12 05:21:28;;;;;;;0.90;0.70;;;16.60;99.90;;;;;;6177870;23;20016;-90
2022/08/12 05:23:55;;;;;;;0.75;0.65;;;16.70;99.90;;;;;;6150678;23;20107;-84
2022/08/12 05:26:23;;;;;;;0.80;0.60;;;16.70;99.90;;;;;;6150562;23;20044;-84
2022/08/12 05:28:53;;;;;;;0.90;0.80;;;16.70;99.90;;;;;;6170533;23;20074;-84
2022/08/12 05:31:20;;;;;;;0.85;0.77;;;16.80;99.90;;;;;;6162719;23;20545;-84
2022/08/12 05:34:13;;;;;;;0.77;0.70;;;16.80;99.90;;;;;;6173825;23;20028;-84
2022/08/12 05:36:42;;;;;;;0.75;0.65;;;16.80;99.90;;;;;;6189092;23;20439;-84
2022/08/12 05:39:11;;;;;;;0.80;0.70;;;16.80;99.90;;;;;;6161370;23;20025;-85
2022/08/12 05:41:38;;;;;;;0.77;0.60;;;16.90;99.90;;;;;;6185228;23;20075;-86
2022/08/12 05:44:07;;;;;;;0.70;0.63;;;16.90;99.90;;;;;;6137653;23;20079;-86
2022/08/12 05:46:35;;;;;;;0.63;0.60;;;16.90;99.90;;;;;;6161733;23;20096;-85
2022/08/12 05:49:05;;;;;;;1.67;0.80;;;17.00;99.90;;;;;;6161947;23;20071;-86
2022/08/12 05:51:34;;;;;;;0.80;0.80;;;17.10;99.90;;;;;;6160953;23;20432;-85
2022/08/12 05:54:07;;;;;;;0.70;0.70;;;17.10;99.90;;;;;;6141590;23;20351;-85
2022/08/12 05:56:34;;;;;;;0.60;0.60;;;17.20;99.90;;;;;;6136166;23;20020;-86
2022/08/12 05:59:08;;;;;;;0.80;0.80;;;17.30;99.90;;;;;;6161568;23;20017;-85
2022/08/12 06:01:36;;;;;;;0.93;0.70;;;17.40;99.90;;;;;;6159677;23;20021;-85
2022/08/12 06:04:25;;;;;;;0.90;0.63;;;17.40;99.90;;;;;;6149644;23;20038;-85
2022/08/12 06:06:54;;;;;;;2.10;0.50;;;17.50;99.90;;;;;;6163166;23;20458;-86
2022/08/12 06:09:21;;;;;;;0.63;0.60;;;17.50;99.90;;;;;;6164105;23;20020;-84
2022/08/12 06:11:50;;;;;;;0.98;0.63;;;17.60;99.90;;;;;;6160437;23;20024;-85
2022/08/12 06:14:35;;;;;;;1.13;0.90;;;17.60;99.90;;;;;;6165326;23;20111;-85
2022/08/12 06:17:06;;;;;;;0.75;0.70;;;17.70;99.90;;;;;;6162115;23;20507;-86
2022/08/12 06:19:34;;;;;;;0.55;0.55;;;17.70;99.90;;;;;;6137309;23;20043;-85
2022/08/12 06:22:24;;;;;;;0.77;0.65;;;17.80;99.90;;;;;;6190338;23;20036;-85
2022/08/12 06:24:52;;;;;;;0.63;0.60;;;17.90;99.90;;;;;;6184531;23;20615;-85
2022/08/12 06:27:20;;;;;;;0.73;0.60;;;18.00;99.90;;;;;;6161500;23;20017;-85
2022/08/12 06:29:47;;;;;;;0.85;0.60;;;18.00;99.90;;;;;;6159265;23;20459;-84
2022/08/12 06:32:35;;;;;;;0.73;0.60;;;18.10;99.90;;;;;;6156615;23;20441;-85
2022/08/12 06:35:17;;;;;;;1.73;0.70;;;18.20;99.90;;;;;;6171163;23;20025;-85
2022/08/12 06:38:04;;;;;;;0.57;0.52;;;18.20;99.90;;;;;;6150870;23;20071;-85
2022/08/12 06:43:17;;;;;;;0.47;0.40;;;18.40;99.90;;;;;;6168142;23;20021;-85
2022/08/12 06:45:48;;;;;;;0.50;0.50;;;18.50;99.90;;;;;;6135018;23;20012;-85
2022/08/12 06:48:16;;;;;;;0.75;0.65;;;18.60;99.90;;;;;;6165369;23;20023;-89
2022/08/12 06:50:44;;;;;;;0.70;0.50;;;18.70;99.90;;;;;;6137071;23;20029;-88
2022/08/12 06:53:15;;;;;;;0.50;0.50;;;18.80;99.90;;;;;;6137275;23;20020;-90
2022/08/12 06:55:44;;;;;;;0.50;0.47;;;18.80;99.90;;;;;;6142719;23;20217;-88
2022/08/12 06:58:24;;;;;;;0.50;0.50;;;18.90;99.90;;;;;;6146328;23;20024;-88
2022/08/12 07:00:52;;;;;;;0.73;0.60;;;19.00;99.90;;;;;;6135260;23;20456;-91
2022/08/12 07:03:26;;;;;;;0.57;0.40;;;19.20;99.90;;;;;;6135241;23;20068;-89
2022/08/12 07:06:02;;;;;;;0.70;0.68;;;19.30;99.90;;;;;;6140427;23;20098;-88
2022/08/12 07:08:33;;;;;;;0.60;0.60;;;19.40;99.90;;;;;;6137331;23;20023;-89
2022/08/12 07:11:02;;;;;;;1.15;0.82;;;19.50;99.90;;;;;;6136632;23;20087;-89
2022/08/12 07:13:34;;;;;;;1.13;0.82;;;19.70;99.90;;;;;;6136330;23;20017;-88
2022/08/12 07:16:21;;;;;;;0.82;0.77;;;19.70;99.90;;;;;;6148348;23;20451;-89
2022/08/12 07:18:52;;;;;;;1.10;0.70;;;19.90;99.90;;;;;;6134863;23;20027;-89
2022/08/12 07:21:19;;;;;;;0.70;0.70;;;20.00;99.90;;;;;;6137252;23;20059;-92
2022/08/12 07:23:46;;;;;;;1.13;0.60;;;20.10;99.90;;;;;;6136045;23;20439;-91
2022/08/12 07:26:18;;;;;;;1.15;0.70;;;20.20;99.90;;;;;;6137635;23;20472;-90
2022/08/12 07:28:49;;;;;;;0.50;0.50;;;20.20;99.90;;;;;;6140365;23;20027;-92
2022/08/12 07:31:17;;;;;;;1.00;0.70;;;20.30;99.90;;;;;;6139252;23;20016;-91
2022/08/12 07:33:44;;;;;;;0.93;0.70;;;20.40;99.90;;;;;;6137753;23;20028;-90
2022/08/12 07:36:12;;;;;;;0.70;0.70;;;20.50;99.90;;;;;;6138448;23;20013;-92
2022/08/12 07:38:45;;;;;;;0.60;0.60;;;20.50;99.90;;;;;;6133647;23;20079;-93
2022/08/12 07:41:14;;;;;;;1.33;0.60;;;20.60;99.90;;;;;;6157344;23;20016;-91
2022/08/12 07:43:49;;;;;;;0.40;0.40;;;20.70;99.90;;;;;;6157985;23;20095;-91
2022/08/12 07:46:18;;;;;;;0.77;0.68;;;20.80;99.90;;;;;;6157036;23;20032;-90
2022/08/12 07:48:56;;;;;;;0.55;0.55;;;20.80;99.90;;;;;;6158521;23;20025;-91
2022/08/12 07:51:23;;;;;;;0.73;0.60;;;21.00;99.90;;;;;;6159550;23;20017;-92
2022/08/12 07:53:52;;;;;;;0.75;0.70;;;21.00;99.90;;;;;;6158828;23;20021;-91
2022/08/12 07:56:30;;;;;;;0.98;0.73;;;21.10;99.90;;;;;;6161072;23;20028;-92
2022/08/12 07:58:57;;;;;;;0.80;0.80;;;21.20;99.90;;;;;;6157290;23;20017;-92
2022/08/12 08:01:26;;;;;;;0.93;0.80;;;21.30;99.90;;;;;;6157288;23;20444;-89
2022/08/12 08:06:45;;;;;;;1.05;0.95;;;21.40;99.90;;;;;;6184417;23;20024;-89
2022/08/12 08:09:14;;;;;;;0.50;0.50;;;21.60;99.90;;;;;;6158437;23;20020;-88
2022/08/12 08:14:31;;;;;;;0.80;0.63;;;21.70;99.90;;;;;;6180918;23;20087;-89
2022/08/12 08:16:59;;;;;;;0.52;0.50;;;21.80;99.90;;;;;;6162365;23;20048;-89
2022/08/12 08:19:28;;;;;;;0.40;0.40;;;21.90;99.90;;;;;;6164366;23;20021;-90
2022/08/12 08:21:55;;;;;;;0.73;0.70;;;22.00;99.90;;;;;;6174794;23;20017;-89
2022/08/12 08:24:25;;;;;;;1.33;0.90;;;22.10;99.90;;;;;;6174753;23;20067;-88
2022/08/12 08:26:55;;;;;;;0.98;0.77;;;22.20;99.90;;;;;;6171547;23;20021;-88
2022/08/12 08:29:24;;;;;;;1.88;0.70;;;22.30;99.90;;;;;;6164071;23;20048;-89
2022/08/12 08:31:53;;;;;;;0.90;0.60;;;22.50;99.90;;;;;;6158417;23;20024;-90
2022/08/12 08:34:21;;;;;;;0.60;0.60;;;22.60;99.90;;;;;;6155718;23;20310;-88
2022/08/12 08:37:14;;;;;;;1.08;0.88;;;22.70;99.90;;;;;;6161714;23;20021;-88
2022/08/12 08:39:43;;;;;;;0.93;0.80;;;22.80;99.90;;;;;;6157800;23;20029;-89
2022/08/12 08:44:57;;;;;;;0.82;0.68;;;23.00;99.90;;;;;;6180309;23;20063;-89
2022/08/12 08:47:24;;;;;;;1.00;0.57;;;23.20;99.90;;;;;;6169316;23;20021;-89
2022/08/12 08:49:51;;;;;;;2.03;0.68;;;23.30;99.90;;;;;;6166288;23;20017;-89
2022/08/12 08:52:23;;;;;;;0.70;0.63;;;23.40;99.90;;;;;;6158404;23;20021;-89
2022/08/12 08:55:15;;;;;;;1.30;0.70;;;23.50;99.90;;;;;;6159113;23;20025;-89
2022/08/12 08:57:59;;;;;;;1.00;0.80;;;23.60;99.90;;;;;;6178033;23;20028;-89
2022/08/12 09:00:29;;;;;;;0.77;0.75;;;23.80;99.90;;;;;;6155202;23;20257;-90
2022/08/12 09:02:56;;;;;;;0.73;0.60;;;23.90;99.90;;;;;;6156113;23;20084;-89
2022/08/12 09:05:26;;;;;;;0.50;0.50;;;24.00;99.90;;;;;;6156526;23;20023;-88
2022/08/12 09:08:08;;;;;;;0.80;0.80;;;24.20;99.90;;;;;;6159578;23;20017;-86
2022/08/12 09:10:41;;;;;;;0.40;0.40;;;24.30;99.90;;;;;;6157422;23;20031;-90
2022/08/12 09:16:17;;;;;;;0.50;0.50;;;24.60;99.90;;;;;;6180362;23;20024;-89
2022/08/12 09:18:46;;;;;;;0.82;0.60;;;24.80;99.90;;;;;;6156465;23;20021;-89
2022/08/12 09:21:18;;;;;;;0.60;0.60;;;24.90;99.90;;;;;;6180155;23;20017;-88
2022/08/12 09:23:49;;;;;;;0.65;0.55;;;25.00;99.90;;;;;;6178132;23;20016;-91
2022/08/12 09:26:32;;;;;;;1.20;0.60;;;25.10;99.90;;;;;;6155964;23;20032;-86
2022/08/12 09:29:19;;;;;;;0.70;0.60;;;25.20;99.90;;;;;;6151992;23;20039;-90
2022/08/12 09:32:06;;;;;;;0.68;0.45;;;25.30;99.90;;;;;;6157208;23;20099;-87
2022/08/12 09:34:37;;;;;;;0.50;0.50;;;25.40;99.90;;;;;;6155288;23;20021;-88
2022/08/12 09:37:09;;;;;;;0.63;0.60;;;25.50;99.90;;;;;;6152388;23;20017;-86
2022/08/12 09:39:48;;;;;;;0.47;0.47;;;25.60;99.90;;;;;;6146384;23;20096;-86
2022/08/12 09:45:44;;;;;;;0.65;0.60;;;25.90;99.10;;;;;;6149313;23;20057;-86
2022/08/12 09:48:33;;;;;;;1.38;0.80;;;26.10;98.60;;;;;;6129557;23;20473;-87
2022/08/12 09:51:02;;;;;;;0.90;0.70;;;26.30;97.00;;;;;;6125240;23;20076;-87
2022/08/12 09:53:29;;;;;;;0.93;0.80;;;26.40;96.60;;;;;;6150225;23;20041;-86
2022/08/12 09:56:04;;;;;;;0.90;0.68;;;26.50;96.50;;;;;;6127630;23;20042;-85
2022/08/12 09:58:52;;;;;;;1.05;0.73;;;26.60;96.50;;;;;;6130399;23;20492;-86
2022/08/12 10:01:26;;;;;;;0.70;0.60;;;26.80;96.40;;;;;;6126909;23;20104;-86
2022/08/12 10:04:14;;;;;;;0.60;0.50;;;26.80;95.90;;;;;;6145736;23;20108;-85
2022/08/12 10:06:45;;;;;;;0.52;0.50;;;26.90;95.30;;;;;;6122629;23;20023;-88
2022/08/12 10:09:23;;;;;;;0.85;0.77;;;27.10;93.90;;;;;;6127912;23;20025;-86
2022/08/12 10:15:00;;;;;;;1.23;0.82;;;27.20;92.70;;;;;;6148824;23;20104;-86
2022/08/12 10:17:28;;;;;;;0.50;0.50;;;27.40;93.10;;;;;;6126570;23;20078;-86
2022/08/12 10:19:55;;;;;;;0.90;0.73;;;27.40;92.40;;;;;;6125620;23;20017;-87
2022/08/12 10:22:29;;;;;;;1.05;0.70;;;27.50;91.90;;;;;;6150746;23;20041;-86
2022/08/12 10:31:04;;;;;;;0.90;0.75;;;27.80;90.10;;;;;;6150445;23;20033;-87
2022/08/12 10:33:33;;;;;;;1.23;0.60;;;27.90;87.20;;;;;;6125105;23;20337;-86
2022/08/12 10:36:20;;;;;;;0.70;0.63;;;28.00;87.00;;;;;;6149744;23;20029;-88
2022/08/12 10:39:07;;;;;;;0.80;0.77;;;28.10;85.90;;;;;;6138002;23;20132;-87
2022/08/12 10:44:39;;;;;;;1.20;0.80;;;28.30;85.00;;;;;;6174919;23;20025;-87
2022/08/12 10:47:06;;;;;;;0.80;0.77;;;28.40;82.90;;;;;;6176776;23;20029;-89
2022/08/12 10:49:53;;;;;;;1.17;0.80;;;28.50;83.20;;;;;;6159439;23;20396;-86
2022/08/12 10:52:36;;;;;;;1.00;0.73;;;28.60;80.30;;;;;;6157660;23;20037;-87
2022/08/12 10:55:04;;;;;;;0.70;0.70;;;28.60;81.00;;;;;;6156564;23;20444;-86
2022/08/12 10:57:38;;;;;;;1.02;0.80;;;28.80;82.30;;;;;;6159434;23;20124;-89
2022/08/12 11:00:25;;;;;;;0.90;0.75;;;28.90;82.20;;;;;;6162679;23;20032;-86
2022/08/12 11:03:01;;;;;;;0.88;0.77;;;28.90;80.80;;;;;;6159213;23;20021;-87
2022/08/12 11:05:49;;;;;;;0.68;0.60;;;29.00;81.20;;;;;;6160684;23;20039;-86
2022/08/12 11:08:39;;;;;;;0.80;0.80;;;29.10;79.90;;;;;;6160606;23;20104;-87
2022/08/12 11:11:10;;;;;;;1.13;0.95;;;29.20;77.40;;;;;;6157500;23;20014;-87
2022/08/12 11:13:43;;;;;;;0.82;0.60;;;29.20;76.80;;;;;;6158287;23;20083;-88
2022/08/12 11:16:17;;;;;;;;;;;29.30;76.50;;;;;;6158316;23;20160;-86
2022/08/12 11:18:49;;;;;;;0.70;0.65;;;29.40;76.90;;;;;;6155243;23;19926;-86
2022/08/12 11:21:22;;;;;;;0.70;0.70;;;29.50;75.40;;;;;;6156485;23;20021;-86
2022/08/12 11:24:09;;;;;;;1.00;0.90;;;29.70;74.20;;;;;;6159552;23;20389;-88
2022/08/12 11:26:57;;;;;;;1.40;0.90;;;29.80;71.30;;;;;;6159049;23;20460;-87
2022/08/12 11:29:25;;;;;;;0.65;0.65;;;30.00;71.80;;;;;;6179395;23;20017;-87
2022/08/12 11:32:12;;;;;;;0.93;0.77;;;30.10;71.70;;;;;;6182426;23;20069;-88
2022/08/12 11:34:40;;;;;;;1.00;0.90;;;30.30;69.70;;;;;;6179435;23;20028;-87
2022/08/12 11:37:20;;;;;;;1.10;0.90;;;30.50;70.10;;;;;;6177061;23;20040;-88
2022/08/12 11:40:07;;;;;;;0.65;0.65;;;30.70;68.20;;;;;;6159872;23;20061;-87
2022/08/12 11:42:34;;;;;;;1.88;0.90;;;30.80;66.30;;;;;;6157262;23;20071;-87
2022/08/12 11:45:05;;;;;;;0.80;0.70;;;31.00;67.60;;;;;;6159969;23;20024;-86
2022/08/12 11:47:36;;;;;;;0.90;0.80;;;31.30;65.80;;;;;;6171890;23;20021;-86
2022/08/12 11:50:06;;;;;;;1.05;0.75;;;31.40;64.90;;;;;;6201782;23;20103;-88
2022/08/12 11:52:37;;;;;;;0.80;0.70;;;31.70;64.40;;;;;;6189894;23;20013;-86
2022/08/12 11:55:24;;;;;;;0.85;0.80;;;31.90;63.70;;;;;;6183491;23;20055;-87
2022/08/12 11:57:54;;;;;;;2.55;0.70;;;32.30;62.80;;;;;;6181876;23;20414;-86
2022/08/12 12:00:41;;;;;;;0.70;0.70;;;32.40;60.70;;;;;;6160318;23;20052;-86
2022/08/12 12:03:29;;;;;;;0.95;0.90;;;32.70;60.90;;;;;;6160200;23;20085;-86
2022/08/12 12:06:13;;;;;;;1.15;0.73;;;32.70;59.50;;;;;;6180066;23;20487;-89
2022/08/12 12:08:43;;;;;;;0.73;0.60;;;33.00;59.70;;;;;;6154749;23;20468;-89
2022/08/12 12:11:17;;;;;;;0.82;0.70;;;33.10;59.50;;;;;;6179989;23;20079;-86
2022/08/12 12:13:44;;;;;;;0.80;0.80;;;33.20;58.30;;;;;;6152149;23;20017;-88
2022/08/12 12:16:31;;;;;;;0.70;0.70;;;33.30;57.90;;;;;;6176684;23;20032;-89
2022/08/12 12:18:59;;;;;;;0.70;0.60;;;33.70;57.70;;;;;;6151751;23;20025;-88
2022/08/12 12:21:27;;;;;;;0.60;0.60;;;34.00;57.10;;;;;;6153832;23;20091;-86
2022/08/12 12:24:16;;;;;;;0.75;0.75;;;34.30;57.60;;;;;;6157244;23;20043;-89
2022/08/12 12:26:47;;;;;;;0.77;0.70;;;34.50;55.70;;;;;;6178001;23;20024;-87
2022/08/12 12:29:29;;;;;;;1.02;0.80;;;34.60;55.70;;;;;;6153552;23;20511;-87
2022/08/12 12:32:16;;;;;;;0.75;0.50;;;34.90;55.40;;;;;;6155138;23;20056;-87
2022/08/12 12:34:44;;;;;;;0.80;0.80;;;35.40;54.00;;;;;;6177797;23;20028;-88
2022/08/12 12:37:31;;;;;;;0.77;0.77;;;35.50;53.60;;;;;;6156893;23;20393;-88
2022/08/12 12:40:19;;;;;;;0.82;0.63;;;35.60;53.00;;;;;;6156200;23;20693;-87
2022/08/12 12:42:46;;;;;;;0.70;0.70;;;35.70;53.70;;;;;;6152592;23;20025;-88
2022/08/12 12:45:29;;;;;;;0.60;0.60;;;35.60;53.00;;;;;;6154984;23;20091;-87
2022/08/12 12:48:00;;;;;;;0.60;0.60;;;36.00;52.90;;;;;;6152696;23;20013;-89
2022/08/12 12:50:31;;;;;;;0.70;0.70;;;36.10;53.10;;;;;;6153177;23;20344;-87
2022/08/12 12:53:04;;;;;;;0.50;0.50;;;36.20;52.30;;;;;;6175310;23;20107;-88
2022/08/12 12:55:34;;;;;;;1.00;0.63;;;36.30;52.70;;;;;;6152264;23;20041;-88
2022/08/12 12:58:03;;;;;;;0.52;0.50;;;36.30;52.20;;;;;;6151639;23;20016;-87
2022/08/12 13:00:31;;;;;;;0.40;0.40;;;36.70;51.20;;;;;;6150160;23;20504;-88
2022/08/12 13:02:58;;;;;;;0.60;0.60;;;37.10;51.30;;;;;;6150878;23;20013;-88
2022/08/12 13:05:35;;;;;;;0.80;0.63;;;37.10;50.40;;;;;;6173113;23;20412;-88
2022/08/12 13:08:23;;;;;;;0.50;0.50;;;37.30;50.70;;;;;;6181059;23;20417;-85
2022/08/12 13:11:04;;;;;;;0.50;0.50;;;37.60;50.50;;;;;;6153234;23;20024;-88
2022/08/12 13:13:33;;;;;;;0.98;0.68;;;37.60;49.60;;;;;;6150694;23;20021;-85
2022/08/12 13:16:20;;;;;;;0.50;0.50;;;37.90;49.30;;;;;;6151846;23;20068;-86
2022/08/12 13:18:51;;;;;;;0.60;0.60;;;38.00;48.80;;;;;;6149728;23;20028;-87
2022/08/12 13:21:19;;;;;;;0.40;0.40;;;38.00;49.10;;;;;;6173865;23;20029;-88
2022/08/12 13:24:01;;;;;;;0.50;0.50;;;38.00;48.50;;;;;;6152656;23;20177;-88
2022/08/12 13:26:38;;;;;;;0.47;0.47;;;38.10;48.20;;;;;;6153597;23;20028;-90
2022/08/12 13:29:06;;;;;;;0.40;0.40;;;38.40;47.80;;;;;;6152224;23;20025;-89
2022/08/12 13:31:40;;;;;;;0.70;0.70;;;38.40;47.50;;;;;;6175322;23;20083;-89
2022/08/12 13:34:27;;;;;;;0.50;0.43;;;38.50;47.70;;;;;;6154274;23;20064;-85
2022/08/12 13:37:04;;;;;;;0.50;0.50;;;38.60;48.10;;;;;;6173937;23;20036;-88
2022/08/12 13:39:36;;;;;;;0.82;0.82;;;38.60;47.80;;;;;;6132126;23;20033;-88
2022/08/12 13:42:08;;;;;;;0.60;0.55;;;38.70;47.60;;;;;;6144340;23;20031;-88
2022/08/12 13:44:40;;;;;;;0.60;0.60;;;38.90;47.10;;;;;;6122128;23;20386;-90
2022/08/12 13:47:07;;;;;;;0.57;0.57;;;39.10;47.50;;;;;;6120480;23;20048;-88
2022/08/12 13:49:49;;;;;;;0.82;0.60;;;39.50;47.20;;;;;;6146139;23;20040;-85
2022/08/12 13:52:22;;;;;;;0.70;0.60;;;39.80;47.30;;;;;;6124297;23;20040;-86
2022/08/12 13:54:49;;;;;;;0.55;0.55;;;40.00;46.50;;;;;;6145275;23;20021;-86
2022/08/12 13:57:22;;;;;;;0.30;0.30;;;40.60;46.20;;;;;;6122197;23;20124;-86
2022/08/12 13:59:53;;;;;;;0.40;0.40;;;40.70;46.00;;;;;;6120540;23;20205;-85
2022/08/12 14:02:22;;;;;;;0.55;0.55;;;40.70;45.50;;;;;;6120338;23;20022;-86
2022/08/12 14:04:51;;;;;;;0.73;0.50;;;40.80;45.50;;;;;;6144680;23;20022;-86
2022/08/12 14:07:23;;;;;;;0.57;0.50;;;40.70;45.20;;;;;;6143931;23;20499;-86
2022/08/12 14:12:43;;;;;;;0.50;0.50;;;40.60;44.60;;;;;;6145078;23;20525;-86
2022/08/12 14:15:21;;;;;;;0.50;0.50;;;40.40;44.90;;;;;;6123839;23;20554;-86
2022/08/12 14:18:16;;;;;;;0.93;0.40;;;40.60;44.70;;;;;;6123279;23;20022;-86
2022/08/12 14:20:44;;;;;;;;;;;40.50;44.90;;;;;;6147506;23;20084;-85
2022/08/12 14:23:14;;;;;;;0.50;0.50;;;40.40;44.50;;;;;;6122207;23;19920;-86
2022/08/12 14:26:04;;;;;;;0.65;0.60;;;40.50;43.70;;;;;;6126071;23;20467;-85
2022/08/12 14:28:33;;;;;;;0.73;0.73;;;40.80;44.10;;;;;;6123290;23;20025;-86
2022/08/12 14:31:07;;;;;;;0.80;0.60;;;40.50;44.00;;;;;;6119570;23;20032;-85
2022/08/12 14:33:47;;;;;;;0.50;0.50;;;40.60;44.10;;;;;;6144979;23;20029;-85
2022/08/12 14:36:19;;;;;;;0.40;0.40;;;40.90;43.30;;;;;;6122657;23;20108;-86
2022/08/12 14:38:48;;;;;;;0.50;0.50;;;41.00;43.20;;;;;;6128704;23;20017;-86
2022/08/12 14:41:16;;;;;;;0.93;0.47;;;41.00;42.90;;;;;;6151613;23;20486;-86
2022/08/12 14:43:45;;;;;;;0.50;0.40;;;40.90;43.00;;;;;;6151870;23;20068;-86
2022/08/12 14:46:32;;;;;;;0.45;0.45;;;41.00;42.90;;;;;;6155141;23;20025;-86
2022/08/12 14:48:59;;;;;;;0.40;0.30;;;41.20;42.80;;;;;;6176447;23;20025;-86
2022/08/12 14:51:46;;;;;;;0.40;0.40;;;41.30;42.70;;;;;;6155838;23;20396;-86
2022/08/12 14:54:33;;;;;;;0.40;0.40;;;41.20;42.60;;;;;;6155725;23;20393;-86
2022/08/12 14:57:20;;;;;;;0.25;0.25;;;41.40;42.90;;;;;;6176277;23;20519;-86
2022/08/12 15:02:36;;;;;;;0.50;0.50;;;41.40;42.70;;;;;;6175998;23;20041;-87
2022/08/12 15:05:04;;;;;;;0.40;0.40;;;41.60;42.60;;;;;;6151837;23;20527;-88
2022/08/12 15:07:33;;;;;;;0.47;0.40;;;41.70;42.70;;;;;;6152151;23;20365;-88
2022/08/12 15:10:19;;;;;;;0.60;0.50;;;41.80;42.10;;;;;;6156682;23;20441;-88
2022/08/12 15:13:04;;;;;;;0.40;0.40;;;42.10;42.10;;;;;;6155867;23;20043;-87
2022/08/12 15:15:37;;;;;;;0.40;0.30;;;42.10;42.40;;;;;;6180766;23;20021;-87
2022/08/12 15:18:17;;;;;;;0.40;0.40;;;42.30;41.90;;;;;;6154781;23;20101;-88
2022/08/12 15:20:49;;;;;;;0.30;0.30;;;42.40;42.00;;;;;;6176734;23;20023;-88
2022/08/12 15:23:17;;;;;;;0.30;0.30;;;42.80;42.00;;;;;;6150991;23;20025;-88
2022/08/12 15:25:47;;;;;;;;;;;42.80;42.10;;;;;;6155457;23;20025;-89
2022/08/12 15:28:22;;;;;;;0.57;0.57;;;42.60;42.10;;;;;;6163337;23;19916;-87
2022/08/12 15:30:53;;;;;;;0.77;0.50;;;42.40;42.00;;;;;;6150571;23;20447;-87
2022/08/12 15:33:20;;;;;;;0.55;0.55;;;41.80;42.40;;;;;;6152019;23;20036;-88